Alenia C-27J Spartan from Italian Air Force at Volkel.
 Regi:CS.X62219  LARGER
 MSN Year:4117
 Date of picture:2019-06-13 11:12
 Discription:311GR/RSV (Reparto Sperimentale Volo).
 Position:06L
 Logs: 33FFB8 CSX62219 SPARTAN 2019-06-13 09:18:09 C-27J Italy ITALIANAIRFORCE Wanssum, NL 4130 1900
 Metar SA 13/06/2019 10:55 METAR EHVK 131055Z AUTO 20015KT 140V230 9999 FEW042 SCT061 OVC070 17/09 Q1011 BLU 19015G25KT 9999 SCT030=
 Hits: 31 ID: 2336

Debriefing: Photographed movements of Airports in NW-Europe.
The images of our site attendant is in authorisation from Queen of Sky.
Copying of images of this site have been prohibited in which manner without the authorisation of the photographer.
In behalf of the crew :"Thank you visiting us" - Contact
Factsheets Alenia, C-27J Spartan, Italian Air Force, made by De Plane! © 2006 - 2022 All rights reserved


.